createdAt,value
2022-10-25T00:02:00.606Z,5.13
2022-10-25T00:05:03.753Z,5.75
2022-10-25T00:08:06.258Z,5.53
2022-10-25T00:11:14.379Z,4.78
2022-10-25T00:14:19.157Z,2.60
2022-10-25T00:17:21.392Z,2.35
2022-10-25T00:20:23.378Z,2.22
2022-10-25T00:23:25.137Z,3.03
2022-10-25T00:26:27.545Z,2.22
2022-10-25T00:29:29.411Z,1.35
2022-10-25T00:32:31.324Z,1.70
2022-10-25T00:35:36.302Z,2.05
2022-10-25T00:38:39.085Z,1.63
2022-10-25T00:41:45.728Z,1.75
2022-10-25T00:45:01.877Z,2.63
2022-10-25T00:48:05.362Z,2.72
2022-10-25T00:51:07.452Z,3.05
2022-10-25T00:54:11.990Z,3.22
2022-10-25T00:57:17.106Z,1.75
2022-10-25T01:00:19.791Z,0.90
2022-10-25T01:03:23.291Z,1.08
2022-10-25T01:06:58.121Z,1.95
2022-10-25T01:10:00.116Z,2.80
2022-10-25T01:13:02.473Z,3.47
2022-10-25T01:16:33.415Z,1.60
2022-10-25T01:20:14.311Z,0.95
2022-10-25T01:23:42.270Z,1.02
2022-10-25T01:27:11.352Z,1.27
2022-10-25T01:30:20.717Z,1.20
2022-10-25T01:33:33.262Z,1.70
2022-10-25T01:36:41.116Z,2.30
2022-10-25T01:39:53.972Z,1.50
2022-10-25T01:42:58.625Z,4.03
2022-10-25T01:46:18.711Z,4.75
2022-10-25T01:49:27.855Z,4.80
2022-10-25T01:52:29.903Z,4.65
2022-10-25T01:55:35.198Z,4.05
2022-10-25T01:58:49.154Z,4.18
2022-10-25T02:02:10.835Z,1.05
2022-10-25T02:05:58.114Z,0.80
2022-10-25T02:09:30.680Z,0.80
2022-10-25T02:12:40.968Z,0.95
2022-10-25T02:15:51.749Z,1.92
2022-10-25T02:19:03.104Z,1.98
2022-10-25T02:22:08.404Z,3.50
2022-10-25T02:25:10.452Z,3.58
2022-10-25T02:28:13.347Z,2.95
2022-10-25T02:31:17.756Z,2.80
2022-10-25T02:34:19.653Z,2.80
2022-10-25T02:37:21.461Z,4.57
2022-10-25T02:40:23.232Z,3.85
2022-10-25T02:43:24.975Z,4.45
2022-10-25T02:46:26.781Z,2.85
2022-10-25T02:49:28.745Z,2.80
2022-10-25T02:52:31.347Z,3.22
2022-10-25T02:55:33.192Z,3.63
2022-10-25T02:58:36.665Z,2.53
2022-10-25T03:01:54.817Z,3.60
2022-10-25T03:04:56.574Z,3.90
2022-10-25T03:07:58.282Z,3.42
2022-10-25T03:11:00.135Z,4.05
2022-10-25T03:14:01.829Z,3.63
2022-10-25T03:17:03.583Z,1.70
2022-10-25T03:20:05.806Z,3.63
2022-10-25T03:23:07.797Z,4.15
2022-10-25T03:26:09.482Z,3.78
2022-10-25T03:29:11.259Z,1.88
2022-10-25T03:32:13.297Z,2.45
2022-10-25T03:35:15.170Z,2.97
2022-10-25T03:38:17.160Z,1.70
2022-10-25T03:41:18.854Z,3.42
2022-10-25T03:44:20.716Z,3.17
2022-10-25T03:47:22.497Z,3.10
2022-10-25T03:50:24.257Z,1.60
2022-10-25T03:53:26.105Z,1.98
2022-10-25T03:56:27.802Z,1.73
2022-10-25T03:59:29.490Z,2.15
2022-10-25T04:02:31.252Z,1.75
2022-10-25T04:05:33.153Z,3.15
2022-10-25T04:08:34.906Z,3.00
2022-10-25T04:11:36.689Z,3.05
2022-10-25T04:14:38.374Z,3.45
2022-10-25T04:17:40.212Z,3.17
2022-10-25T04:20:41.944Z,3.40
2022-10-25T04:23:43.687Z,3.15
2022-10-25T04:26:45.525Z,2.85
2022-10-25T04:29:47.291Z,2.40
2022-10-25T04:32:49.804Z,2.40
2022-10-25T04:35:58.140Z,2.67
2022-10-25T04:39:00.338Z,2.58
2022-10-25T04:42:02.180Z,2.92
2022-10-25T04:45:04.426Z,1.90
2022-10-25T04:48:06.456Z,2.30
2022-10-25T04:51:09.688Z,2.17
2022-10-25T04:54:14.855Z,2.20
2022-10-25T04:57:16.795Z,2.55
2022-10-25T05:00:18.704Z,2.40
2022-10-25T05:03:21.275Z,3.25
2022-10-25T05:06:25.698Z,2.85
2022-10-25T05:09:27.744Z,3.70
2022-10-25T05:12:29.401Z,3.15
2022-10-25T05:15:31.137Z,2.78
2022-10-25T05:18:33.907Z,1.98
2022-10-25T05:21:35.795Z,2.50
2022-10-25T05:24:37.677Z,2.45
2022-10-25T05:27:39.492Z,2.28
2022-10-25T05:30:42.766Z,2.50
2022-10-25T05:33:45.444Z,1.48
2022-10-25T05:36:47.411Z,2.25
2022-10-25T05:39:49.163Z,1.20
2022-10-25T05:42:51.066Z,1.23
2022-10-25T05:46:01.979Z,1.50
2022-10-25T05:49:04.202Z,1.20
2022-10-25T05:52:07.034Z,1.33
2022-10-25T05:55:09.458Z,1.60
2022-10-25T05:58:11.198Z,1.42
2022-10-25T06:01:17.564Z,1.92
2022-10-25T06:04:19.438Z,2.72
2022-10-25T06:07:21.163Z,2.90
2022-10-25T06:10:23.145Z,2.30
2022-10-25T06:13:24.914Z,2.45
2022-10-25T06:16:26.850Z,2.88
2022-10-25T06:19:28.582Z,2.15
2022-10-25T06:22:30.751Z,1.90
2022-10-25T06:25:32.563Z,1.55
2022-10-25T06:28:35.169Z,1.63
2022-10-25T06:31:36.983Z,2.10
2022-10-25T06:34:38.815Z,2.28
2022-10-25T06:37:40.653Z,2.00
2022-10-25T06:40:42.410Z,2.38
2022-10-25T06:43:48.994Z,1.58
2022-10-25T06:50:12.659Z,1.98
2022-10-25T06:53:14.810Z,1.60
2022-10-25T06:56:16.761Z,1.38
2022-10-25T06:59:20.578Z,2.47
2022-10-25T07:02:22.639Z,1.38
2022-10-25T07:05:25.358Z,1.27
2022-10-25T07:08:27.136Z,1.23
2022-10-25T07:11:31.296Z,1.10
2022-10-25T07:14:33.057Z,1.80
2022-10-25T07:17:34.975Z,1.23
2022-10-25T07:20:36.902Z,1.48
2022-10-25T07:23:42.498Z,1.60
2022-10-25T07:26:44.414Z,1.92
2022-10-25T07:29:46.269Z,1.60
2022-10-25T07:32:48.024Z,2.08
2022-10-25T07:36:09.932Z,1.77
2022-10-25T07:39:12.792Z,2.05
2022-10-25T07:42:14.540Z,2.88
2022-10-25T07:45:20.309Z,2.28
2022-10-25T07:48:25.506Z,1.88
2022-10-25T07:51:27.388Z,1.75
2022-10-25T07:54:29.216Z,2.28
2022-10-25T07:57:33.827Z,1.58
2022-10-25T08:00:36.964Z,2.75
2022-10-25T08:03:38.949Z,2.50
2022-10-25T08:06:42.000Z,1.95
2022-10-25T08:09:44.302Z,1.75
2022-10-25T08:12:46.902Z,1.83
2022-10-25T08:15:53.347Z,2.22
2022-10-25T08:18:55.510Z,2.15
2022-10-25T08:21:58.719Z,2.15
2022-10-25T08:25:00.989Z,2.55
2022-10-25T08:28:02.872Z,1.73
2022-10-25T08:31:05.575Z,2.40
2022-10-25T08:34:08.277Z,2.35
2022-10-25T08:37:13.173Z,1.65
2022-10-25T08:40:32.025Z,1.67
2022-10-25T08:43:55.968Z,1.90
2022-10-25T08:47:10.165Z,1.55
2022-10-25T08:50:27.294Z,1.63
2022-10-25T08:53:36.720Z,1.02
2022-10-25T08:56:46.601Z,1.02
2022-10-25T08:59:55.945Z,0.98
2022-10-25T09:03:00.885Z,0.93
2022-10-25T09:06:02.807Z,1.27
2022-10-25T09:09:29.159Z,0.70
2022-10-25T09:12:42.334Z,1.20
2022-10-25T09:16:22.823Z,0.70
2022-10-25T09:19:28.164Z,1.08
2022-10-25T09:22:46.593Z,1.20
2022-10-25T09:26:21.660Z,1.58
2022-10-25T09:29:33.041Z,1.40
2022-10-25T09:32:42.334Z,1.48
2022-10-25T09:35:53.707Z,1.73
2022-10-25T09:38:59.181Z,1.63
2022-10-25T09:42:01.789Z,1.80
2022-10-25T09:45:09.384Z,1.42
2022-10-25T09:48:27.154Z,1.50
2022-10-25T09:51:38.354Z,1.33
2022-10-25T09:54:46.575Z,1.77
2022-10-25T09:57:49.106Z,1.20
2022-10-25T10:00:53.214Z,1.35
2022-10-25T10:04:00.081Z,1.27
2022-10-25T10:07:07.403Z,1.63
2022-10-25T10:13:50.995Z,0.93
2022-10-25T10:16:55.471Z,0.80
2022-10-25T10:20:14.154Z,1.20
2022-10-25T10:23:16.366Z,1.17
2022-10-25T10:26:29.192Z,0.60
2022-10-25T10:29:33.018Z,0.47
2022-10-25T10:32:37.400Z,0.35
2022-10-25T10:35:39.762Z,0.40
2022-10-25T10:38:42.300Z,0.40
2022-10-25T10:42:17.768Z,0.40
2022-10-25T10:45:20.369Z,0.47
2022-10-25T10:48:23.318Z,0.50
2022-10-25T10:51:44.663Z,0.40
2022-10-25T10:54:48.175Z,0.47
2022-10-25T10:57:53.318Z,0.55
2022-10-25T11:01:12.977Z,0.50
2022-10-25T11:04:14.957Z,0.63
2022-10-25T11:07:31.300Z,0.28
2022-10-25T11:10:34.637Z,0.40
2022-10-25T11:13:37.722Z,0.30
2022-10-25T11:16:58.428Z,0.40
2022-10-25T11:20:09.200Z,0.22
2022-10-25T11:23:17.252Z,0.38
2022-10-25T11:26:49.793Z,0.30
2022-10-25T11:30:20.817Z,0.50
2022-10-25T11:33:51.521Z,0.22
2022-10-25T11:37:17.653Z,0.30
2022-10-25T11:40:30.344Z,0.20
2022-10-25T11:43:50.420Z,0.30
2022-10-25T11:46:58.963Z,0.30
2022-10-25T11:50:29.442Z,0.30
2022-10-25T11:53:50.303Z,0.40
2022-10-25T11:57:01.612Z,0.28
2022-10-25T12:00:16.562Z,0.20
2022-10-25T12:03:43.626Z,0.30
2022-10-25T12:06:52.680Z,0.30
2022-10-25T12:09:55.359Z,0.20
2022-10-25T12:13:23.683Z,0.30
2022-10-25T12:16:25.999Z,0.30
2022-10-25T12:19:30.604Z,0.32
2022-10-25T12:22:43.948Z,0.40
2022-10-25T12:26:08.824Z,0.20
2022-10-25T12:29:21.869Z,0.20
2022-10-25T12:32:32.622Z,0.50
2022-10-25T12:35:39.971Z,0.45
2022-10-25T12:38:43.011Z,0.40
2022-10-25T12:41:51.943Z,0.30
2022-10-25T12:44:56.936Z,0.30
2022-10-25T12:48:20.854Z,0.30
2022-10-25T12:51:28.861Z,0.45
2022-10-25T12:54:33.905Z,0.50
2022-10-25T12:57:54.851Z,0.40
2022-10-25T13:01:13.484Z,0.40
2022-10-25T13:04:27.975Z,0.43
2022-10-25T13:07:32.363Z,0.60
2022-10-25T13:10:43.431Z,0.30
2022-10-25T13:13:54.305Z,0.22
2022-10-25T13:17:18.244Z,0.40
2022-10-25T13:20:20.409Z,0.43
2022-10-25T13:23:58.634Z,0.40
2022-10-25T13:27:12.864Z,0.43
2022-10-25T13:30:27.364Z,0.43
2022-10-25T13:33:33.454Z,0.55
2022-10-25T13:36:56.791Z,0.50
2022-10-25T13:40:06.965Z,0.60
2022-10-25T13:43:20.589Z,0.30
2022-10-25T13:46:38.191Z,0.80
2022-10-25T13:49:43.793Z,0.30
2022-10-25T13:53:25.172Z,0.35
2022-10-25T13:56:30.082Z,0.30
2022-10-25T13:59:58.751Z,0.20
2022-10-25T14:03:09.931Z,0.30
2022-10-25T14:06:22.838Z,0.50
2022-10-25T14:09:27.808Z,0.30
2022-10-25T14:12:31.369Z,0.30
2022-10-25T14:16:04.238Z,0.50
2022-10-25T14:19:15.346Z,0.50
2022-10-25T14:22:25.234Z,0.60
2022-10-25T14:25:40.211Z,0.30
2022-10-25T14:28:42.480Z,0.30
2022-10-25T14:31:45.781Z,0.45
2022-10-25T14:34:51.774Z,0.77
2022-10-25T14:37:54.917Z,0.32
2022-10-25T14:41:02.603Z,0.38
2022-10-25T14:44:22.071Z,0.35
2022-10-25T14:47:27.005Z,0.28
2022-10-25T14:50:29.849Z,0.15
2022-10-25T14:53:31.817Z,0.35
2022-10-25T14:56:40.200Z,0.30
2022-10-25T14:59:51.655Z,0.65
2022-10-25T15:02:57.166Z,0.30
2022-10-25T15:05:59.628Z,0.32
2022-10-25T15:09:40.726Z,0.40
2022-10-25T15:12:31.704Z,0.32
2022-10-25T15:15:40.822Z,3.30
2022-10-25T15:18:42.819Z,3.50
2022-10-25T15:21:50.524Z,7.25
2022-10-25T15:24:52.422Z,1.85
2022-10-25T15:27:55.162Z,0.50
2022-10-25T15:31:01.361Z,0.43
2022-10-25T15:34:04.769Z,0.40
2022-10-25T15:37:15.473Z,0.45
2022-10-25T15:40:18.508Z,0.40
2022-10-25T15:43:20.836Z,0.40
2022-10-25T15:46:33.792Z,0.30
2022-10-25T15:49:36.106Z,0.22
2022-10-25T15:52:38.189Z,0.28
2022-10-25T15:55:40.035Z,0.38
2022-10-25T15:58:42.399Z,0.57
2022-10-25T16:01:46.370Z,11.98
2022-10-25T16:04:48.887Z,22.63
2022-10-25T16:07:51.675Z,4.35
2022-10-25T16:10:53.930Z,2.75
2022-10-25T16:13:56.069Z,3.60
2022-10-25T16:17:01.319Z,2.42
2022-10-25T16:20:04.244Z,4.30
2022-10-25T16:23:06.461Z,1.13
2022-10-25T16:26:20.836Z,3.08
2022-10-25T16:29:25.110Z,3.75
2022-10-25T16:32:27.123Z,5.93
2022-10-25T16:35:30.074Z,14.52
2022-10-25T16:38:32.170Z,9.13
2022-10-25T16:41:39.265Z,5.22
2022-10-25T16:44:41.135Z,13.88
2022-10-25T16:47:43.348Z,7.57
2022-10-25T16:50:45.813Z,11.88
2022-10-25T16:53:48.686Z,0.93
2022-10-25T16:56:51.623Z,0.70
2022-10-25T16:59:53.977Z,5.40
2022-10-25T17:02:56.130Z,0.40
2022-10-25T17:06:00.350Z,0.70
2022-10-25T17:09:06.040Z,0.63
2022-10-25T17:12:11.929Z,0.47
2022-10-25T17:15:15.003Z,0.88
2022-10-25T17:18:21.279Z,0.32
2022-10-25T17:21:24.036Z,0.70
2022-10-25T17:24:26.357Z,1.55
2022-10-25T17:27:42.150Z,0.65
2022-10-25T17:30:44.670Z,0.90
2022-10-25T17:33:46.862Z,0.55
2022-10-25T17:39:59.451Z,9.18
2022-10-25T17:43:01.714Z,3.90
2022-10-25T17:46:26.162Z,2.45
2022-10-25T17:49:28.232Z,1.30
2022-10-25T17:52:30.665Z,0.85
2022-10-25T17:55:34.779Z,0.68
2022-10-25T17:58:39.728Z,0.90
2022-10-25T18:01:45.168Z,1.20
2022-10-25T18:05:02.159Z,1.30
2022-10-25T18:08:14.003Z,0.28
2022-10-25T18:11:22.717Z,0.40
2022-10-25T18:14:25.198Z,0.47
2022-10-25T18:17:28.003Z,0.40
2022-10-25T18:20:30.302Z,0.55
2022-10-25T18:23:33.366Z,0.65
2022-10-25T18:26:35.490Z,0.40
2022-10-25T18:29:37.885Z,0.20
2022-10-25T18:32:40.393Z,0.40
2022-10-25T18:35:42.974Z,0.45
2022-10-25T18:38:49.195Z,0.20
2022-10-25T18:41:51.257Z,0.47
2022-10-25T18:44:55.656Z,0.60
2022-10-25T18:48:01.593Z,0.40
2022-10-25T18:51:05.396Z,0.40
2022-10-25T18:54:10.752Z,0.60
2022-10-25T18:57:18.739Z,0.30
2022-10-25T19:00:26.660Z,8.13
2022-10-25T19:03:29.360Z,0.80
2022-10-25T19:06:32.066Z,0.40
2022-10-25T19:09:34.487Z,0.57
2022-10-25T19:12:36.763Z,0.65
2022-10-25T19:15:39.177Z,0.25
2022-10-25T19:18:44.249Z,0.25
2022-10-25T19:21:47.053Z,0.40
2022-10-25T19:24:50.055Z,0.50
2022-10-25T19:27:52.657Z,1.23
2022-10-25T19:30:54.819Z,0.65
2022-10-25T19:34:00.600Z,0.30
2022-10-25T19:37:04.945Z,0.25
2022-10-25T19:40:08.521Z,0.30
2022-10-25T19:43:10.395Z,0.35
2022-10-25T19:46:13.353Z,0.30
2022-10-25T19:49:15.484Z,0.25
2022-10-25T19:52:18.075Z,0.32
2022-10-25T19:55:20.394Z,0.30
2022-10-25T19:58:22.705Z,0.40
2022-10-25T20:01:27.501Z,0.77
2022-10-25T20:04:29.761Z,1.77
2022-10-25T20:07:32.440Z,0.70
2022-10-25T20:10:34.616Z,0.55
2022-10-25T20:13:37.840Z,0.80
2022-10-25T20:16:40.032Z,0.40
2022-10-25T20:19:41.933Z,0.38
2022-10-25T20:22:44.204Z,0.40
2022-10-25T20:25:46.325Z,0.22
2022-10-25T20:28:49.396Z,0.30
2022-10-25T20:31:52.005Z,0.30
2022-10-25T20:34:54.067Z,1.60
2022-10-25T20:37:56.789Z,0.30
2022-10-25T20:41:07.480Z,0.20
2022-10-25T20:44:10.115Z,0.35
2022-10-25T20:47:12.208Z,0.40
2022-10-25T20:50:14.296Z,0.52
2022-10-25T20:53:16.955Z,0.50
2022-10-25T20:56:21.072Z,0.80
2022-10-25T20:59:22.983Z,0.35
2022-10-25T21:02:25.137Z,0.30
2022-10-25T21:05:27.851Z,0.30
2022-10-25T21:08:30.291Z,0.75
2022-10-25T21:11:33.008Z,0.68
2022-10-25T21:14:34.768Z,0.50
2022-10-25T21:17:37.882Z,0.40
2022-10-25T21:20:39.889Z,0.20
2022-10-25T21:23:42.062Z,0.25
2022-10-25T21:26:44.344Z,0.25
2022-10-25T21:29:46.477Z,0.40
2022-10-25T21:32:48.703Z,0.47
2022-10-25T21:35:51.061Z,0.22
2022-10-25T21:38:55.112Z,0.45
2022-10-25T21:41:57.208Z,0.55
2022-10-25T21:44:59.044Z,0.30
2022-10-25T21:48:01.662Z,0.40
2022-10-25T21:51:04.123Z,0.40
2022-10-25T21:54:06.458Z,0.20
2022-10-25T21:57:08.746Z,0.30
2022-10-25T22:00:11.986Z,0.25
2022-10-25T22:03:17.121Z,0.20
2022-10-25T22:06:20.645Z,0.35
2022-10-25T22:09:23.519Z,0.30
2022-10-25T22:12:25.418Z,0.50
2022-10-25T22:15:27.752Z,0.82
2022-10-25T22:18:29.556Z,0.50
2022-10-25T22:21:37.883Z,0.50
2022-10-25T22:24:39.768Z,0.20
2022-10-25T22:27:41.778Z,0.60
2022-10-25T22:30:44.439Z,0.30
2022-10-25T22:33:46.347Z,0.22
2022-10-25T22:36:48.847Z,0.20
2022-10-25T22:39:50.827Z,0.40
2022-10-25T22:42:52.583Z,0.40
2022-10-25T22:45:54.930Z,0.50
2022-10-25T22:48:59.357Z,0.60
2022-10-25T22:52:01.711Z,0.28
2022-10-25T22:55:04.055Z,0.30
2022-10-25T22:58:05.846Z,0.30
2022-10-25T23:01:12.966Z,0.32
2022-10-25T23:07:16.930Z,0.68
2022-10-25T23:10:19.033Z,0.38
2022-10-25T23:13:21.311Z,0.22
2022-10-25T23:16:24.015Z,0.40
2022-10-25T23:19:25.703Z,0.20
2022-10-25T23:22:28.675Z,0.50
2022-10-25T23:25:32.984Z,0.50
2022-10-25T23:28:36.117Z,0.35
2022-10-25T23:31:37.929Z,0.40
2022-10-25T23:34:39.982Z,0.30
2022-10-25T23:37:42.040Z,0.30
2022-10-25T23:40:46.893Z,0.45
2022-10-25T23:43:49.075Z,0.40
2022-10-25T23:46:51.051Z,0.30
2022-10-25T23:49:53.814Z,0.30
2022-10-25T23:52:55.832Z,0.40
2022-10-25T23:55:57.823Z,0.55
2022-10-25T23:58:59.663Z,0.43
